Latest Weather Observations for Esperance Harbour

IDW60801

Issued at 10:33 am WST Tuesday 6 December 2016 (issued every 30 minutes, with the page automatically refreshed every 10 minutes)

About weather observations | Map of weather stations | Latest weather observations for WA | Other Formats
Station Details ID: 109504 Name: ESPERANCE NTC AWS Lat: -33.87 Lon: 121.90 Height: 0.0 m
Data from the previous 72 hours. | See also: Recent months for locations in Western Australia
Date/Time
WST
Temp
°C
App
Temp
°C
Dew
Point
°C
Rel
Hum
%
Delta-T
°C
Wind Press
QNH
hPa
Press
MSL
hPa
Rain since
9am
mm
Dir  Spd
km/h
Gust
km/h
Spd
kts
Gust
kts
06/10:30am 18.8 - - - - CALM 0 0 0 0 1015.4 - -
06/10:00am 19.4 - - - - CALM 0 0 0 0 1015.8 1015.8 -
06/09:30am 19.5 - - - - - - - - - 1016.2 - -
06/09:00am 19.3 - - - - - - - - - 1016.6 1016.6 -
06/08:30am 19.0 - - - - - - - - - 1016.8 - -
06/08:00am 17.9 - - - - - - - - - 1016.8 1016.8 -
06/07:30am 17.1 - - - - - - - - - 1017.0 - -
06/07:00am 16.0 - - - - - - - - - 1016.9 1016.9 -
06/06:30am 14.7 - - - - - - - - - 1017.0 - -
06/06:00am 13.2 - - - - - - - - - 1016.5 1016.5 -
06/05:30am 12.5 - - - - - - - - - 1016.4 - -
06/05:00am 12.5 - - - - - - - - - 1016.3 1016.3 -
06/04:30am 12.4 - - - - - - - - - 1016.2 - -
06/04:00am 12.9 - - - - - - - - - 1016.1 1016.1 -
06/03:30am 13.4 - - - - - - - - - 1015.8 - -
06/03:00am 13.6 - - - - - - - - - 1015.7 1015.7 -
06/02:30am 13.8 - - - - - - - - - 1015.9 - -
06/02:00am 13.9 - - - - - - - - - 1015.9 1015.9 -
06/01:30am 14.1 - - - - - - - - - 1015.6 - -
06/01:00am 14.4 - - - - - - - - - 1015.6 1015.6 -
06/12:30am 14.6 - - - - - - - - - 1015.7 - -
06/12:00am 15.2 - - - - - - - - - 1015.8 1015.8 -
 
Date/Time
WST
Temp
°C
App
Temp
°C
Dew
Point
°C
Rel
Hum
%
Delta-T
°C
Wind Press
QNH
hPa
Press
MSL
hPa
Rain since
9am
mm
Dir  Spd
km/h
Gust
km/h
Spd
kts
Gust
kts
05/11:30pm 15.7 - - - - - - - - - 1015.8 - -
05/11:00pm 15.7 - - - - - - - - - 1015.6 1015.6 -
05/10:30pm 16.7 - - - - - - - - - 1015.4 - -
05/10:00pm 17.2 - - - - - - - - - 1015.5 1015.5 -
05/09:30pm 17.8 - - - - - - - - - 1015.6 - -
05/09:00pm 18.1 - - - - - - - - - 1015.4 1015.4 -
05/08:30pm 18.1 - - - - - - - - - 1015.3 - -
05/08:00pm 18.4 - - - - - - - - - 1015.0 1015.0 -
05/07:30pm 18.4 - - - - - - - - - 1014.9 - -
05/07:00pm 18.5 - - - - - - - - - 1014.6 1014.6 -
05/06:30pm 18.5 - - - - - - - - - 1014.4 - -
05/06:00pm 18.8 - - - - - - - - - 1013.9 1013.9 -
05/05:30pm 19.3 - - - - - - - - - 1013.3 - -
05/05:00pm 19.5 - - - - - - - - - 1012.7 1012.7 -
05/04:30pm 19.9 - - - - - - - - - 1012.5 - -
05/04:00pm 19.6 - - - - - - - - - 1012.7 1012.7 -
05/03:30pm 19.6 - - - - - - - - - 1012.5 - -
05/03:00pm 18.8 - - - - - - - - - 1012.5 1012.5 -
05/02:30pm 18.8 - - - - - - - - - 1012.5 - -
05/02:00pm 18.8 - - - - - - - - - 1012.4 1012.4 -
05/01:30pm 19.0 - - - - - - - - - 1012.3 - -
05/01:00pm 19.0 - - - - - - - - - 1012.5 1012.5 -
05/12:30pm 18.5 - - - - - - - - - 1012.8 - -
05/12:00pm 18.6 - - - - - - - - - 1013.0 1013.0 -
05/11:30am 18.8 - - - - - - - - - 1012.8 - -
05/11:00am 18.9 - - - - - - - - - 1013.1 1013.1 -
05/10:30am 18.6 - - - - - - - - - 1013.3 - -
05/10:00am 18.5 - - - - - - - - - 1013.7 1013.7 -
05/09:30am 18.9 - - - - - - - - - 1014.1 - -
05/09:00am 19.2 - - - - - - - - - 1014.3 1014.3 -
05/08:30am 17.8 - - - - - - - - - 1014.7 - -
05/08:00am 16.9 - - - - - - - - - 1015.0 1015.0 -
05/07:30am 16.1 - - - - - - - - - 1015.3 - -
05/07:00am 15.6 - - - - - - - - - 1015.5 1015.5 -
05/06:30am 14.9 - - - - - - - - - 1015.4 - -
05/06:00am 14.7 - - - - - - - - - 1015.4 1015.4 -
05/05:30am 14.4 - - - - - - - - - 1015.3 - -
05/05:00am 14.1 - - - - - - - - - 1015.1 1015.1 -
05/04:30am 13.9 - - - - - - - - - 1015.0 - -
05/04:00am 13.8 - - - - - - - - - 1014.7 1014.7 -
05/03:30am 13.5 - - - - - - - - - 1014.3 - -
05/03:00am 13.3 - - - - - - - - - 1013.9 1013.9 -
05/02:30am 12.9 - - - - - - - - - 1013.8 - -
05/02:00am 13.1 - - - - - - - - - 1013.8 1013.8 -
05/01:30am 13.7 - - - - - - - - - 1013.7 - -
05/01:00am 16.0 - - - - - - - - - 1013.5 1013.5 -
05/12:30am 16.6 - - - - - - - - - 1013.6 - -
05/12:00am 16.5 - - - - - - - - - 1013.8 1013.8 -
 
Date/Time
WST
Temp
°C
App
Temp
°C
Dew
Point
°C
Rel
Hum
%
Delta-T
°C
Wind Press
QNH
hPa
Press
MSL
hPa
Rain since
9am
mm
Dir  Spd
km/h
Gust
km/h
Spd
kts
Gust
kts
04/11:30pm 16.3 - - - - - - - - - 1013.8 - -
04/11:00pm 16.5 - - - - - - - - - 1013.6 1013.6 -
04/10:30pm 16.6 - - - - - - - - - 1013.9 - -
04/10:00pm 16.8 - - - - - - - - - 1014.2 1014.2 -
04/09:30pm 16.9 - - - - - - - - - 1014.7 - -
04/09:00pm 17.0 - - - - - - - - - 1015.0 1015.0 -
04/08:30pm 16.7 - - - - - - - - - 1015.1 - -
04/08:00pm 16.9 - - - - - - - - - 1015.0 1015.0 -
04/07:30pm 16.9 - - - - - - - - - 1014.8 - -
04/07:00pm 16.9 - - - - - - - - - 1014.5 1014.5 -
04/06:30pm 17.1 - - - - - - - - - 1014.2 - -
04/06:00pm 17.6 - - - - - - - - - 1014.2 1014.2 -
04/05:30pm 17.7 - - - - - - - - - 1013.9 - -
04/05:00pm 17.8 - - - - - - - - - 1013.5 1013.5 -
04/04:30pm 18.8 - - - - - - - - - 1013.5 - -
04/04:00pm 17.8 - - - - - - - - - 1013.3 1013.3 -
04/03:30pm 17.9 - - - - - - - - - 1013.2 - -
04/03:00pm 17.9 - - - - - - - - - 1013.1 1013.1 -
04/02:30pm 18.3 - - - - - - - - - 1012.9 - -
04/02:00pm 18.7 - - - - - - - - - 1013.0 1013.0 -
04/01:30pm 18.0 - - - - - - - - - 1012.8 - -
04/01:00pm 19.2 - - - - - - - - - 1012.8 1012.8 -
04/12:30pm 18.8 - - - - - - - - - 1012.6 - -
04/12:00pm 19.2 - - - - - - - - - 1013.0 1013.0 -
04/11:30am 18.2 - - - - - - - - - 1013.0 - -
04/11:00am 19.0 - - - - - - - - - 1013.0 1013.0 -
04/10:30am 18.6 - - - - - - - - - 1013.0 - -
04/10:00am 18.5 - - - - - - - - - 1012.9 1012.9 -
04/09:30am 18.3 - - - - - - - - - 1012.6 - -
04/09:00am 18.2 - - - - - - - - - 1012.4 1012.4 -
04/08:30am 18.2 - - - - - - - - - 1012.3 - -
04/08:00am 17.8 - - - - - - - - - 1012.3 1012.3 -
04/07:30am 17.3 - - - - - - - - - 1012.1 - -
04/07:00am 17.4 - - - - - - - - - 1011.7 1011.7 -
04/06:30am 17.0 - - - - - - - - - 1011.3 - -
04/06:00am 16.7 - - - - - - - - - 1010.9 1010.9 -
04/05:30am 16.6 - - - - - - - - - 1010.6 - -
04/05:00am 16.2 - - - - - - - - - 1010.0 1010.0 -
04/04:30am 16.3 - - - - - - - - - 1009.4 - -
04/04:00am 16.3 - - - - - - - - - 1009.0 1009.0 -
04/03:30am 16.6 - - - - - - - - - 1008.5 - -
04/03:00am 16.9 - - - - - - - - - 1007.9 1007.9 -
04/02:30am 17.0 - - - - - - - - - 1007.6 - -
04/02:00am 17.3 - - - - - - - - - 1007.4 1007.4 -
04/01:30am 17.1 - - - - - - - - - 1007.1 - -
04/01:00am 17.1 - - - - - - - - - 1007.0 1007.0 -
04/12:30am 18.4 - - - - - - - - - 1006.8 - -
04/12:00am 18.5 - - - - - - - - - 1006.7 1006.7 -
 
Date/Time
WST
Temp
°C
App
Temp
°C
Dew
Point
°C
Rel
Hum
%
Delta-T
°C
Wind Press
QNH
hPa
Press
MSL
hPa
Rain since
9am
mm
Dir  Spd
km/h
Gust
km/h
Spd
kts
Gust
kts
03/11:30pm 18.4 - - - - - - - - - 1006.5 - -
03/11:00pm 18.4 - - - - - - - - - 1006.4 1006.4 -
03/10:30pm 18.5 - - - - - - - - - 1006.2 - -
03/10:00pm 18.8 - - - - - - - - - 1006.1 1006.1 -
03/09:30pm 18.7 - - - - - - - - - 1006.1 - -
03/09:00pm 17.8 - - - - - - - - - 1005.9 1005.9 -
03/08:30pm 18.6 - - - - - - - - - 1005.6 - -
03/08:00pm 18.4 - - - - - - - - - 1005.1 1005.1 -
03/07:30pm 18.4 - - - - - - - - - 1004.3 - -
03/07:00pm 18.6 - - - - - - - - - 1004.1 1004.1 -
03/06:30pm 18.8 - - - - - - - - - 1004.0 - -
03/06:00pm 18.9 - - - - - - - - - 1003.5 1003.5 -
03/05:30pm 19.1 - - - - - - - - - 1003.2 - -
03/05:00pm 19.1 - - - - - - - - - 1002.9 1002.9 -
03/04:30pm 19.1 - - - - - - - - - 1002.3 - -
03/04:00pm 19.9 - - - - - - - - - 1002.3 1002.3 -
03/03:30pm 20.2 - - - - - - - - - 1002.1 - -
03/03:00pm 20.8 - - - - - - - - - 1002.0 1002.0 -
03/02:30pm 20.6 - - - - - - - - - 1001.8 - -
03/02:00pm 21.0 - - - - - - - - - 1001.6 1001.6 -
03/01:30pm 20.9 - - - - - - - - - 1001.3 - -
03/01:00pm 21.3 - - - - - - - - - 1001.1 1001.1 -
03/12:30pm 20.6 - - - - - - - - - 1001.1 - -
03/12:00pm 21.8 - - - - - - - - - 1000.9 1000.9 -
03/11:30am 23.5 - - - - - - - - - 1000.6 - -
03/11:00am 28.1 - - - - - - - - - 1000.8 1000.8 -

Other Formats:

Comma delimited format used in spreadsheet applications
http://www.bom.gov.au/fwo/IDW60801/IDW60801.95648.axf

JavaScript Object Notation format (JSON) in row-major order
http://www.bom.gov.au/fwo/IDW60801/IDW60801.95648.json